Pagina principale
METAR-TAF:

METAR-TAF

Aeroporti :

Kirkenes, Norvegia

latitudine: 69-44N, longitudine: 029-54E, altezza: 9 m

Osservazione

Il bollettino è stato emesso 16 minuti fa, alle 11:20 UTC
Vento 7 kt da nord/nord-est
Temperature 7°C
Umidità 61%
Pressione 1004 hPa
Visibilità 10 km o più
Poco nuvoloso ad un'altezza di 2600 ft

METAR: ENKR 171120Z 03007KT 9999 FEW026 07/00 Q1004 RMK WIND 731FT 04010KT

Ora: 13:36 (11:36 UTC)

Previsione

Il bollettino è stato emesso 3 ore e 36 minuti fa, alle 08:00 UTC
Previsione valida dal 17 alle 09 UTC al 17 alle 18 UTC
Vento 10 kt da nord/nord-est
Visibilità 10 km o più
Poco nuvoloso ad un'altezza di 2500 ft, Cumulo congesto.
Nubi sparse ad un'altezza di 4000 ft
rovesci di pioggia

TAF: ENKR 170800Z 1709/1718 02010KT 9999 -SHRA FEW025TCU SCT040

Osservazioni e previsioni meteorologiche di più di 4000 aeroporti (messaggi METAR e TAF).

Le stazioni disponibili sono rappresentate dai dischi gialli e rossi sulla carta.

Puntare il mouse per vedere il nome della stazione.

Clicca sopra per visualizzare le osservazioni e previsioni meteorologiche.

Per cambiare la mappa : fare clic sui pulsanti verdi con una croce nera per ingrandire, il pulsante verde con un trattino per diminuire, o sulla freccia verde per le mappe adiacenti.


METAR-TAF: